Weather at Kȩtrzyn-Wilamowo Airport

Public forecast

Using degrees Celsius for public forecast. Weather courtesy of forecast.io.

Closest aviation weather report (METAR) to Kȩtrzyn-Wilamowo Airport

Closest report is Olsztyn-Mazury Airport, 38.0 nm (70.4 km) SSW. Retrieved 2021/12/03 10:00 UTC (14 minutes ago):

EPSY 031000Z 22012KT 2300 SHSN BKN008 BKN013CB M01/M01 Q1001

Closest aviation forecast (TAF) to Kȩtrzyn-Wilamowo Airport

Closest forecast is Khrabrovo Airport, 58.7 nm (108.6 km) NNW. Retrieved 2021/12/03 09:21 UTC (53 minutes ago):

TAF UMKK 030759Z 0309/0409 22005G10MPS 6000 FEW010 BKN016 TEMPO 0309/0315 VRB06G13MPS 0600 +SHSNGS BKN004 BKN013CB BECMG 0318/0319 2000 SN BR BKN006 TEMPO 0319/0324 0600 +SHSNRA BKN003 BKN010CB BECMG 0400/0402 20006G13MPS 9999 NSW TEMPO 0406/0409 1000 SN BR BKN003